Cattaraugus, New York
Current Conditions -  °F | °C
As of 8:15 PM on Sunday 23 Nov 2014 (Local Time) from KJHW Reporting Station
Clear Clear  
Wind Chill: 44°   Ceiling: Unl
Heat Index: 48°   Visibility: 10mi
Dew Point: 34°   Wind: 10mph
Humidity: 57%   Direction: 150°SSE
Pressure: 29.74"   Gusts: 17mph
Location:  42.33°N, 78.87°W
Report Text: KJHW 240115Z AUTO 15009G15KT 10SM CLR 09/01 A2974 RMK AO1
Loading
Personal Weather Stations






























Interactive Weather Map New forecast layout! Learn more

10-Day Weather Forecast

Advertisements
Track Severe Weather on mobile